Latest Weather Observations for Delamere

IDD60801

Issued at 9:02 pm CST Saturday 20 December 2014 (issued every 30 minutes, with the page automatically refreshed every 10 minutes)

About weather observations | Map of weather stations | Latest weather observations for NT | Other Formats
Station Details ID: 014949 Name: DELAMERE WEAPONS RANGE Lat: -15.74 Lon: 131.92 Height: 221.0 m
Data from the previous 72 hours. | See also: Recent months at Delamere
Date/Time
CST
Temp
°C
App
Temp
°C
Dew
Point
Rel
Hum
%
Delta-T
°C
Wind Press
QNH
hPa
Press
MSL
hPa
Rain
since 9 am
mm
Dir
 
Spd
km/h
Gust
km/h
Spd
kts
Gust
kts
20/09:00pm 29.6 35.1 25.6 79 2.9 N 7 9 4 5 1007.5 1005.7 0.0
20/08:30pm 29.5 34.2 25.0 77 3.2 NW 9 11 5 6 1007.4 - 0.0
20/08:00pm 29.9 35.2 25.0 75 3.5 WNW 6 9 3 5 1007.2 - 0.0
20/07:30pm 30.5 35.6 22.7 63 5.4 CALM 0 0 0 0 1006.9 - 0.0
20/07:00pm 30.4 34.9 22.3 62 5.5 S 2 7 1 4 1006.9 - 0.0
20/06:30pm 30.7 35.2 24.6 70 4.3 S 9 11 5 6 1006.3 - 0.0
20/06:00pm 30.9 35.5 24.1 67 4.8 S 7 13 4 7 1006.4 1004.6 0.0
20/05:30pm 31.1 35.7 24.7 68 4.5 SSW 9 13 5 7 1005.7 - 0.0
20/05:00pm 31.9 36.9 24.5 65 5.2 SSW 6 9 3 5 1006.1 - 0.0
20/04:30pm 31.5 35.3 24.1 65 5.2 SW 11 17 6 9 1006.3 - 0.0
20/04:00pm 32.1 36.4 24.2 63 5.6 WSW 9 15 5 8 1005.5 - 0.0
20/03:30pm 32.9 36.7 26.4 68 4.7 S 19 26 10 14 1005.9 - 0.0
20/03:00pm 34.4 38.3 26.6 64 5.7 SSE 19 26 10 14 1006.1 1004.3 0.0
20/02:30pm 34.8 - 35.9 - - SSW 13 33 7 18 1006.7 - 0.0
20/02:00pm 35.4 43.8 29.6 72 4.4 SW 7 19 4 10 1007.2 - 0.0
20/01:30pm 34.4 39.5 24.9 57 6.8 NE 7 13 4 7 1007.9 - 0.0
20/01:00pm 35.2 41.3 27.1 63 5.9 WNW 9 13 5 7 1008.4 - 0.0
20/12:30pm 33.9 38.1 25.3 60 6.2 SE 13 26 7 14 1009.1 - 0.0
20/12:00pm 33.5 38.6 25.5 63 5.7 WNW 9 17 5 9 1009.7 1007.9 0.0
20/11:30am 32.5 36.7 24.8 64 5.5 ESE 11 20 6 11 1010.4 - 0.0
20/11:00am 31.5 - 32.4 - - ESE 11 20 6 11 1011.0 - 0.0
20/10:30am 30.3 - - - - E 9 15 5 8 1011.5 - 0.0
20/10:00am 29.6 - 30.8 - - ENE 9 13 5 7 1012.0 - 0.0
20/09:30am 29.0 - - - - E 7 13 4 7 1012.2 - 0.0
20/09:00am 28.8 - - - - E 7 13 4 7 1012.1 1010.3 0.0
20/08:30am 28.3 - - - - ESE 7 11 4 6 1011.7 - 0.0
20/08:00am 26.9 - - - - N 9 13 5 7 1011.4 - 0.0
20/07:30am 26.4 - - - - NNE 7 11 4 6 1011.0 - 0.0
20/07:00am 25.5 - - - - S 7 9 4 5 1010.5 - 0.0
20/06:30am 25.2 - - - - S 6 9 3 5 1010.2 - 0.0
20/06:00am 25.1 - - - - W 6 9 3 5 1009.4 1007.7 0.0
20/05:30am 25.2 - - - - CALM 0 0 0 0 1009.1 - 0.0
20/05:00am 25.1 - - - - CALM 0 0 0 0 1008.9 - 0.0
20/04:30am 25.3 - - - - CALM 0 0 0 0 1008.6 - 0.0
20/04:00am 25.2 - - - - ENE 6 7 3 4 1009.1 - 0.0
20/03:30am 25.2 - - - - NE 9 13 5 7 1009.7 - 0.0
20/03:00am 25.5 - - - - NW 4 7 2 4 1009.2 1007.5 0.0
20/02:30am 25.4 - - - - CALM 0 0 0 0 1008.9 - 0.0
20/02:00am 25.4 - - - - NE 9 13 5 7 1009.8 - 0.0
20/01:30am 25.8 - - - - ESE 13 19 7 10 1010.5 - 0.0
20/01:00am 26.2 - - - - S 11 20 6 11 1010.3 - 0.0
20/12:30am 26.4 - - - - SW 9 13 5 7 1010.0 - 0.0
20/12:00am 26.9 - - - - SW 11 19 6 10 1010.8 1009.0 0.0
 
Date/Time
CST
Temp
°C
App
Temp
°C
Dew
Point
Rel
Hum
%
Delta-T
°C
Wind Press
QNH
hPa
Press
MSL
hPa
Rain
since 9 am
mm
Dir
 
Spd
km/h
Gust
km/h
Spd
kts
Gust
kts
19/11:30pm 26.4 - - - - WSW 13 20 7 11 1011.2 - 0.0
19/11:00pm 26.1 - - - - W 17 28 9 15 1011.7 - 0.0
19/10:30pm 26.4 - - - - NW 17 30 9 16 1012.3 - 0.0
19/10:00pm 26.4 - - - - WSW 11 15 6 8 1011.6 - 0.0
19/09:30pm 26.7 - - - - WSW 13 19 7 10 1011.4 - 0.0
19/09:00pm 26.8 - - - - WSW 15 22 8 12 1011.0 1009.2 0.0
19/08:30pm 27.8 - - - - WSW 9 15 5 8 1010.5 - 0.0
19/08:00pm 28.2 31.3 24.8 82 2.4 SW 17 28 9 15 1009.8 - 0.0
19/07:30pm 29.7 35.1 23.2 68 4.5 CALM 0 7 0 4 1009.5 - 0.0
19/07:00pm 29.5 33.8 23.7 71 4.0 NNE 7 11 4 6 1008.2 - 0.0
19/06:30pm 29.6 31.5 22.1 64 5.1 ESE 15 24 8 13 1008.2 - 0.0
19/06:00pm 31.1 32.7 23.2 63 5.5 E 20 33 11 18 1007.9 1006.1 0.0
19/05:30pm 31.8 35.5 23.3 60 5.9 SSW 9 13 5 7 1006.8 - 0.0
19/05:00pm 31.2 35.8 26.0 74 3.7 NW 13 15 7 8 1006.7 - 0.0
19/04:30pm 32.3 35.3 22.7 57 6.6 WNW 11 20 6 11 1006.4 - 0.0
19/04:00pm 32.8 39.1 31.5 93 1.0 E 26 46 14 25 1006.4 - 0.0
19/03:30pm 38.2 51.2 34.8 83 2.7 W 7 9 4 5 1005.6 - 0.0
19/03:00pm 33.4 38.7 28.8 77 3.4 SE 20 30 11 16 1006.3 1004.5 0.0
19/02:30pm 37.8 46.9 31.9 72 4.6 WNW 13 20 7 11 1006.7 - 0.0
19/02:00pm 38.1 47.3 31.1 67 5.4 NE 9 15 5 8 1007.4 - 0.0
19/01:30pm 37.1 46.0 30.7 70 4.9 W 9 17 5 9 1008.4 - 0.0
19/01:00pm 36.7 47.7 32.7 80 3.1 N 7 11 4 6 1009.0 - 0.0
19/12:30pm 36.1 44.8 30.5 73 4.3 W 9 15 5 8 1009.8 - 0.0
19/12:00pm 35.3 39.8 23.9 51 8.1 WSW 7 9 4 5 1010.2 1008.4 0.0
19/11:30am 34.8 38.6 23.5 52 7.9 S 9 17 5 9 1010.7 - 0.0
19/11:00am 33.9 38.1 24.7 58 6.5 SSW 11 19 6 10 1011.0 - 0.0
19/10:30am 33.2 37.8 24.1 59 6.4 SSW 7 13 4 7 1011.1 - 0.0
19/10:00am 32.0 35.5 23.5 60 5.9 SSW 11 17 6 9 1011.2 - 0.0
19/09:30am 31.2 34.0 23.0 61 5.7 SW 13 22 7 12 1011.4 - 0.0
19/09:00am 31.2 34.8 23.8 64 5.2 SSW 11 17 6 9 1011.3 1009.5 0.0
19/08:30am 29.8 32.9 23.5 69 4.4 WSW 13 15 7 8 1011.2 - 0.0
19/08:00am 29.0 32.4 23.4 72 3.9 WSW 11 15 6 8 1011.1 - 0.0
19/07:30am 27.8 31.5 23.2 76 3.2 SW 9 13 5 7 1010.8 - 0.0
19/07:00am 27.1 31.1 23.1 79 2.7 WSW 7 13 4 7 1010.6 - 0.0
19/06:30am 26.4 30.6 23.1 82 2.3 WNW 6 7 3 4 1010.3 - 0.0
19/06:00am 26.5 30.2 23.2 82 2.3 WSW 9 15 5 8 1009.8 1008.0 0.0
19/05:30am 26.3 30.0 23.2 83 2.1 WSW 9 13 5 7 1009.3 - 0.0
19/05:00am 25.9 30.1 23.2 85 1.9 W 6 9 3 5 1008.9 - 0.0
19/04:30am 26.0 30.1 23.3 85 1.9 W 7 9 4 5 1008.5 - 0.0
19/04:00am 26.2 30.3 23.3 84 2.0 WNW 7 9 4 5 1008.3 - 0.0
19/03:30am 26.3 30.5 23.4 84 2.0 W 7 9 4 5 1008.1 - 0.0
19/03:00am 26.7 30.8 23.2 81 2.4 WNW 7 9 4 5 1008.2 1006.5 0.0
19/02:30am 27.2 31.1 23.0 78 2.9 NW 7 9 4 5 1008.2 - 0.0
19/02:00am 27.7 32.8 22.6 74 3.5 CALM 0 0 0 0 1008.2 - 0.0
19/01:30am 27.7 31.9 22.4 73 3.6 SE 4 7 2 4 1008.5 - 0.0
19/01:00am 27.9 32.1 22.4 72 3.7 SW 4 13 2 7 1008.3 - 0.0
19/12:30am 27.8 32.3 22.3 72 3.7 WSW 2 6 1 3 1008.2 - 0.0
19/12:00am 27.9 31.0 22.1 70 3.9 SW 9 13 5 7 1008.7 1007.0 0.0
 
Date/Time
CST
Temp
°C
App
Temp
°C
Dew
Point
Rel
Hum
%
Delta-T
°C
Wind Press
QNH
hPa
Press
MSL
hPa
Rain
since 9 am
mm
Dir
 
Spd
km/h
Gust
km/h
Spd
kts
Gust
kts
18/11:30pm 28.2 30.9 22.2 70 4.1 WSW 11 19 6 10 1009.3 - 0.0
18/11:00pm 28.3 33.4 25.5 85 2.0 SW 9 17 5 9 1009.7 - 0.0
18/10:30pm 27.6 33.5 27.3 98 0.2 SW 11 19 6 10 1010.1 - 0.0
18/10:00pm 27.9 32.0 25.7 88 1.6 SSW 15 20 8 11 1009.8 - 0.0
18/09:30pm 29.1 30.2 23.1 70 4.1 SW 22 33 12 18 1009.4 - 0.0
18/09:00pm 31.1 35.1 23.7 64 5.2 W 9 17 5 9 1009.2 1007.5 0.0
18/08:30pm 31.3 34.1 23.7 64 5.3 WSW 15 28 8 15 1008.8 - 0.0
18/08:00pm 32.3 34.5 21.8 54 7.2 W 13 22 7 12 1008.1 - 0.0
18/07:30pm 33.8 36.4 21.2 47 8.6 WSW 9 13 5 7 1007.7 - 0.0
18/07:00pm 33.3 37.0 23.9 58 6.6 WNW 11 17 6 9 1007.5 - 0.0
18/06:30pm 34.1 38.2 25.2 59 6.4 NNW 13 17 7 9 1006.3 - 0.0
18/06:00pm 33.1 33.1 21.6 51 7.9 N 24 43 13 23 1005.9 1004.1 0.0
18/05:55pm 32.9 32.1 21.7 51 7.7 N 28 44 15 24 1005.9 - 0.0
18/05:30pm 35.1 44.0 31.6 82 2.7 N 13 20 7 11 1005.5 - 0.0
18/05:00pm 36.0 44.3 32.2 81 2.9 NW 19 32 10 17 1004.7 - 0.0
18/04:30pm 39.4 43.5 24.5 42 10.7 ESE 11 17 6 9 1004.6 - 0.0
18/04:00pm 39.0 42.7 24.5 43 10.4 N 13 20 7 11 1004.7 - 0.0
18/03:30pm 39.2 43.8 25.4 45 10.0 ESE 11 20 6 11 1005.4 - 0.0
18/03:00pm 37.9 40.9 25.3 48 9.1 E 19 20 10 11 1005.8 1004.0 0.0
18/02:30pm 38.8 44.7 26.8 50 8.8 SSW 9 15 5 8 1006.3 - 0.0
18/02:00pm 38.5 42.8 23.7 42 10.5 NE 7 13 4 7 1007.1 - 0.0
18/01:30pm 37.5 41.3 22.4 41 10.5 NNW 6 11 3 6 1008.0 - 0.0
18/01:00pm 36.1 39.7 22.3 45 9.6 W 7 15 4 8 1008.5 - 0.0
18/12:30pm 36.7 38.8 20.9 39 10.8 WNW 11 17 6 9 1009.0 - 0.0
18/12:00pm 36.1 38.7 21.9 43 9.8 W 11 19 6 10 1009.5 1007.8 0.0
18/11:30am 35.0 38.2 22.3 47 8.8 SW 9 13 5 7 1009.9 - 0.0
18/11:00am 34.1 37.0 22.5 50 8.0 W 11 17 6 9 1010.2 - 0.0
18/10:30am 33.5 37.0 23.5 55 7.0 W 11 19 6 10 1010.6 - 0.0
18/10:00am 32.3 34.9 22.7 57 6.6 WSW 13 19 7 10 1010.4 - 0.0
18/09:30am 31.2 34.7 23.6 64 5.3 W 11 17 6 9 1010.5 - 0.0
18/09:00am 30.2 33.2 23.4 67 4.7 W 13 17 7 9 1010.5 1008.7 0.0
18/08:30am 29.6 33.1 23.5 69 4.2 WNW 11 17 6 9 1010.2 - 0.0
18/08:00am 28.2 32.7 22.9 73 3.6 N 4 9 2 5 1010.1 - 0.0
18/07:30am 26.5 30.1 22.3 78 2.8 N 7 9 4 5 1009.5 - 0.0
18/07:00am 26.2 29.1 22.5 80 2.5 NNE 11 15 6 8 1009.2 - 0.0
18/06:30am 26.0 28.4 22.3 80 2.5 NNE 13 17 7 9 1008.9 - 0.0
18/06:00am 26.1 28.7 22.0 78 2.8 NNE 11 15 6 8 1008.4 1006.7 0.0
18/05:30am 26.3 29.0 21.3 74 3.3 NE 9 11 5 6 1008.0 - 0.0
18/05:00am 26.6 29.3 21.4 73 3.5 N 9 13 5 7 1007.6 - 0.0
18/04:30am 26.8 29.7 21.1 71 3.8 NW 7 11 4 6 1007.3 - 0.0
18/04:00am 27.0 29.9 21.1 70 3.9 NNW 7 11 4 6 1007.1 - 0.0
18/03:30am 27.2 29.6 20.8 68 4.3 NW 9 11 5 6 1007.1 - 0.0
18/03:00am 27.4 29.7 20.7 67 4.5 WNW 9 13 5 7 1006.6 1004.8 0.0
18/02:30am 27.5 29.4 20.6 66 4.6 WNW 11 19 6 10 1006.4 - 0.0
18/02:00am 27.6 30.0 20.9 67 4.5 NW 9 11 5 6 1006.5 - 0.0
18/01:30am 27.7 30.9 21.3 68 4.3 NW 6 9 3 5 1007.0 - 0.0
18/01:00am 27.9 31.1 21.2 67 4.5 WNW 6 7 3 4 1007.0 - 0.0
18/12:30am 28.3 31.2 21.1 65 4.8 WNW 7 9 4 5 1007.3 - 0.0
18/12:00am 28.7 31.6 21.0 63 5.2 NW 7 9 4 5 1007.3 1005.5 0.0
 
Date/Time
CST
Temp
°C
App
Temp
°C
Dew
Point
Rel
Hum
%
Delta-T
°C
Wind Press
QNH
hPa
Press
MSL
hPa
Rain
since 9 am
mm
Dir
 
Spd
km/h
Gust
km/h
Spd
kts
Gust
kts
17/11:30pm 29.2 31.3 20.9 61 5.6 NW 11 17 6 9 1007.4 - 0.0
17/11:00pm 29.6 31.2 20.7 58 6.0 NW 13 19 7 10 1007.4 - 0.0
17/10:30pm 30.0 31.5 20.5 56 6.3 NW 13 20 7 11 1007.3 - 0.0
17/10:00pm 30.1 32.2 20.9 57 6.2 NW 11 15 6 8 1007.7 - 0.0
17/09:30pm 29.8 32.4 21.2 60 5.8 N 9 11 5 6 1007.7 - 0.0

Other Formats:

Comma delimited format used in spreadsheet applications
http://www.bom.gov.au/fwo/IDD60801/IDD60801.94225.axf

JavaScript Object Notation format (JSON) in row-major order
http://www.bom.gov.au/fwo/IDD60801/IDD60801.94225.json